createdAt,value
2022-08-05T00:02:30.309Z,25.64
2022-08-05T00:06:05.142Z,25.55
2022-08-05T00:08:56.860Z,25.52
2022-08-05T00:12:00.562Z,25.49
2022-08-05T00:15:54.094Z,25.54
2022-08-05T00:18:28.860Z,25.56
2022-08-05T00:21:31.632Z,25.61
2022-08-05T00:24:42.340Z,25.64
2022-08-05T00:27:45.476Z,25.63
2022-08-05T00:30:52.049Z,25.60
2022-08-05T00:34:54.615Z,25.57
2022-08-05T00:37:19.128Z,25.48
2022-08-05T00:40:27.268Z,25.44
2022-08-05T00:43:41.577Z,25.39
2022-08-05T00:46:53.988Z,25.35
2022-08-05T00:50:04.293Z,25.29
2022-08-05T00:53:09.906Z,25.33
2022-08-05T00:56:32.464Z,25.32
2022-08-05T00:59:44.368Z,25.26
2022-08-05T01:02:47.466Z,25.37
2022-08-05T01:05:54.569Z,25.26
2022-08-05T01:08:57.755Z,25.50
2022-08-05T01:12:17.838Z,25.79
2022-08-05T01:15:35.516Z,26.04
2022-08-05T01:18:42.746Z,26.20
2022-08-05T01:22:00.297Z,26.30
2022-08-05T01:25:13.601Z,26.48
2022-08-05T01:28:25.341Z,26.44
2022-08-05T01:31:31.487Z,26.34
2022-08-05T01:34:38.088Z,26.14
2022-08-05T01:37:45.362Z,26.05
2022-08-05T01:40:48.665Z,25.99
2022-08-05T01:43:54.524Z,25.92
2022-08-05T01:46:58.123Z,25.92
2022-08-05T01:50:03.074Z,25.92
2022-08-05T01:53:11.671Z,25.89
2022-08-05T01:58:29.708Z,25.78
2022-08-05T01:59:40.954Z,25.74
2022-08-05T02:02:54.706Z,25.68
2022-08-05T02:06:00.841Z,25.77
2022-08-05T02:09:06.641Z,25.77
2022-08-05T02:12:13.623Z,25.61
2022-08-05T02:15:23.930Z,25.52
2022-08-05T02:18:34.916Z,25.29
2022-08-05T02:21:43.387Z,25.39
2022-08-05T02:24:57.300Z,25.33
2022-08-05T02:28:08.899Z,25.40
2022-08-05T02:31:21.011Z,25.24
2022-08-05T02:34:25.217Z,25.23
2022-08-05T02:37:32.162Z,25.34
2022-08-05T02:40:35.377Z,25.32
2022-08-05T02:44:02.275Z,25.27
2022-08-05T02:47:04.587Z,25.23
2022-08-05T02:50:09.327Z,25.12
2022-08-05T02:53:18.675Z,25.10
2022-08-05T02:56:21.942Z,25.13
2022-08-05T02:59:27.776Z,25.14
2022-08-05T03:02:35.950Z,25.16
2022-08-05T03:06:55.814Z,25.20
2022-08-05T03:09:02.686Z,25.19
2022-08-05T03:12:08.197Z,25.08
2022-08-05T03:15:12.463Z,25.10
2022-08-05T03:18:17.468Z,25.07
2022-08-05T03:21:20.245Z,25.06
2022-08-05T03:24:29.647Z,25.09
2022-08-05T03:27:57.878Z,25.13
2022-08-05T03:30:57.614Z,25.10
2022-08-05T03:34:01.591Z,25.03
2022-08-05T03:37:05.742Z,25.01
2022-08-05T03:40:11.741Z,24.94
2022-08-05T03:43:58.707Z,24.85
2022-08-05T03:46:37.979Z,24.79
2022-08-05T03:49:51.030Z,24.74
2022-08-05T03:55:00.349Z,24.73
2022-08-05T03:56:34.829Z,24.66
2022-08-05T03:59:47.566Z,24.54
2022-08-05T04:02:59.456Z,24.52
2022-08-05T04:06:04.404Z,24.49
2022-08-05T04:09:08.062Z,24.52
2022-08-05T04:12:23.730Z,24.52
2022-08-05T04:15:28.431Z,24.39
2022-08-05T04:18:36.484Z,24.34
2022-08-05T04:22:09.046Z,24.51
2022-08-05T04:25:03.952Z,24.37
2022-08-05T04:28:12.804Z,24.33
2022-08-05T04:31:15.923Z,24.37
2022-08-05T04:34:32.733Z,24.33
2022-08-05T04:38:02.567Z,24.35
2022-08-05T04:41:01.483Z,24.34
2022-08-05T04:44:09.106Z,24.28
2022-08-05T04:47:16.994Z,24.21
2022-08-05T04:50:34.323Z,24.30
2022-08-05T04:53:42.823Z,24.31
2022-08-05T04:56:47.976Z,24.37
2022-08-05T04:59:50.859Z,24.40
2022-08-05T05:02:53.357Z,24.51
2022-08-05T05:06:39.617Z,24.53
2022-08-05T05:09:20.814Z,24.56
2022-08-05T05:12:27.375Z,24.76
2022-08-05T05:15:56.953Z,25.03
2022-08-05T05:19:17.692Z,25.35
2022-08-05T05:22:24.049Z,25.49
2022-08-05T05:25:32.601Z,25.67
2022-08-05T05:28:42.639Z,25.73
2022-08-05T05:31:46.410Z,25.86
2022-08-05T05:34:52.433Z,25.84
2022-08-05T05:37:59.611Z,26.01
2022-08-05T05:41:07.639Z,26.13
2022-08-05T05:44:35.743Z,26.12
2022-08-05T05:48:05.613Z,26.31
2022-08-05T05:50:59.110Z,26.12
2022-08-05T05:54:22.935Z,26.20
2022-08-05T05:57:52.914Z,26.35
2022-08-05T06:00:56.090Z,26.42
2022-08-05T06:04:02.061Z,26.43
2022-08-05T06:07:07.180Z,26.39
2022-08-05T06:10:14.516Z,26.46
2022-08-05T06:13:19.977Z,26.52
2022-08-05T06:16:32.674Z,26.37
2022-08-05T06:19:36.291Z,26.31
2022-08-05T06:22:40.426Z,26.08
2022-08-05T06:26:12.643Z,26.25
2022-08-05T06:29:44.307Z,26.24
2022-08-05T06:32:30.900Z,26.46
2022-08-05T06:36:07.052Z,26.53
2022-08-05T06:38:57.102Z,26.82
2022-08-05T06:42:04.216Z,27.11
2022-08-05T06:45:09.863Z,27.06
2022-08-05T06:48:55.451Z,27.36
2022-08-05T06:51:47.766Z,27.76
2022-08-05T06:54:52.086Z,27.73
2022-08-05T06:58:02.881Z,27.67
2022-08-05T07:01:21.310Z,28.05
2022-08-05T07:04:25.576Z,27.91
2022-08-05T07:07:43.026Z,27.62
2022-08-05T07:10:52.492Z,27.74
2022-08-05T07:14:20.162Z,27.58
2022-08-05T07:17:59.043Z,27.54
2022-08-05T07:20:49.726Z,27.78
2022-08-05T07:23:55.080Z,27.93
2022-08-05T07:26:58.873Z,27.77
2022-08-05T07:30:24.674Z,27.86
2022-08-05T07:33:36.686Z,28.25
2022-08-05T07:36:40.565Z,28.53
2022-08-05T07:40:04.324Z,28.66
2022-08-05T07:43:20.163Z,28.45
2022-08-05T07:46:25.121Z,28.79
2022-08-05T07:49:30.171Z,28.65
2022-08-05T07:52:33.230Z,28.81
2022-08-05T07:56:05.121Z,29.09
2022-08-05T07:58:59.373Z,29.06
2022-08-05T08:02:03.347Z,29.16
2022-08-05T08:05:08.166Z,28.96
2022-08-05T08:08:14.504Z,29.27
2022-08-05T08:11:18.172Z,29.34
2022-08-05T08:14:30.506Z,29.48
2022-08-05T08:17:33.437Z,29.49
2022-08-05T08:21:00.515Z,29.67
2022-08-05T08:24:04.975Z,29.53
2022-08-05T08:27:09.063Z,29.77
2022-08-05T08:30:27.618Z,29.50
2022-08-05T08:33:38.145Z,29.79
2022-08-05T08:36:47.384Z,30.07
2022-08-05T08:39:55.252Z,29.91
2022-08-05T08:42:58.155Z,29.81
2022-08-05T08:46:21.379Z,30.09
2022-08-05T08:50:22.565Z,30.31
2022-08-05T08:52:53.125Z,31.00
2022-08-05T08:56:03.672Z,31.25
2022-08-05T08:59:19.374Z,31.46
2022-08-05T09:02:26.773Z,30.99
2022-08-05T09:05:38.406Z,31.28
2022-08-05T09:08:43.143Z,31.64
2022-08-05T09:11:53.146Z,32.14
2022-08-05T09:15:06.019Z,31.01
2022-08-05T09:18:09.733Z,31.30
2022-08-05T09:21:20.747Z,31.06
2022-08-05T09:24:25.670Z,31.06
2022-08-05T09:28:04.669Z,31.76
2022-08-05T09:31:01.039Z,31.82
2022-08-05T09:34:26.166Z,32.12
2022-08-05T09:38:16.423Z,32.33
2022-08-05T09:41:03.477Z,32.41
2022-08-05T09:44:06.909Z,32.01
2022-08-05T09:47:12.754Z,32.36
2022-08-05T09:50:37.629Z,32.58
2022-08-05T09:53:54.336Z,32.01
2022-08-05T09:57:03.773Z,31.97
2022-08-05T10:00:26.417Z,31.86
2022-08-05T10:03:38.748Z,32.15
2022-08-05T10:06:59.252Z,32.18
2022-08-05T10:10:14.325Z,32.20
2022-08-05T10:13:31.591Z,32.46
2022-08-05T10:16:52.875Z,32.44
2022-08-05T10:20:04.503Z,32.63
2022-08-05T10:23:34.458Z,32.42
2022-08-05T10:26:51.194Z,32.71
2022-08-05T10:30:41.137Z,32.81
2022-08-05T10:33:19.656Z,32.43
2022-08-05T10:36:26.107Z,32.55
2022-08-05T10:40:04.081Z,32.55
2022-08-05T10:43:04.632Z,32.60
2022-08-05T10:46:11.841Z,33.11
2022-08-05T10:49:16.457Z,33.25
2022-08-05T10:52:40.124Z,33.25
2022-08-05T10:56:14.579Z,33.39
2022-08-05T11:00:02.547Z,33.64
2022-08-05T11:03:23.362Z,33.28
2022-08-05T11:06:30.732Z,33.19
2022-08-05T11:09:46.290Z,33.66
2022-08-05T11:12:54.431Z,33.43
2022-08-05T11:16:22.487Z,33.78
2022-08-05T11:20:16.982Z,34.24
2022-08-05T11:23:33.312Z,34.80
2022-08-05T11:26:36.473Z,34.81
2022-08-05T11:29:41.486Z,35.01
2022-08-05T11:32:44.161Z,35.41
2022-08-05T11:36:07.009Z,35.79
2022-08-05T11:39:13.522Z,35.95
2022-08-05T11:42:18.309Z,35.85
2022-08-05T11:46:14.470Z,35.68
2022-08-05T11:48:44.821Z,36.21
2022-08-05T11:51:50.583Z,36.79
2022-08-05T11:54:55.044Z,37.09
2022-08-05T11:58:09.444Z,37.28
2022-08-05T12:01:19.149Z,37.26
2022-08-05T12:04:22.338Z,36.57
2022-08-05T12:08:03.684Z,36.69
2022-08-05T12:10:49.592Z,37.62
2022-08-05T12:13:58.725Z,38.48
2022-08-05T12:18:02.708Z,37.70
2022-08-05T12:20:33.345Z,38.01
2022-08-05T12:23:43.255Z,37.94
2022-08-05T12:26:48.622Z,38.77
2022-08-05T12:30:03.182Z,38.43
2022-08-05T12:33:07.342Z,37.04
2022-08-05T12:36:29.567Z,37.36
2022-08-05T12:39:38.574Z,37.54
2022-08-05T12:42:41.994Z,37.07
2022-08-05T12:45:54.832Z,36.76
2022-08-05T12:49:12.898Z,36.33
2022-08-05T12:52:23.956Z,36.35
2022-08-05T12:55:35.298Z,36.28
2022-08-05T12:58:53.876Z,36.26
2022-08-05T13:02:07.089Z,36.61
2022-08-05T13:05:11.068Z,36.97
2022-08-05T13:08:18.722Z,37.61
2022-08-05T13:12:01.043Z,37.74
2022-08-05T13:14:47.876Z,37.14
2022-08-05T13:18:08.509Z,37.45
2022-08-05T13:21:11.536Z,38.68
2022-08-05T13:24:27.660Z,44.52
2022-08-05T13:27:41.983Z,42.44
2022-08-05T13:30:44.972Z,40.81
2022-08-05T13:34:21.305Z,45.53
2022-08-05T13:37:13.757Z,42.37
2022-08-05T13:40:36.807Z,40.67
2022-08-05T13:43:54.378Z,41.40
2022-08-05T13:47:02.326Z,45.47
2022-08-05T13:50:16.245Z,45.31
2022-08-05T13:53:19.424Z,42.52
2022-08-05T13:56:22.269Z,41.79
2022-08-05T13:59:27.156Z,43.40
2022-08-05T14:02:31.310Z,43.12
2022-08-05T14:06:04.860Z,42.50
2022-08-05T14:08:56.918Z,44.38
2022-08-05T14:12:17.059Z,45.54
2022-08-05T14:16:08.476Z,52.91
2022-08-05T14:18:44.593Z,45.25
2022-08-05T14:22:09.659Z,40.56
2022-08-05T14:25:21.554Z,37.78
2022-08-05T14:28:26.747Z,35.97
2022-08-05T14:32:02.771Z,35.33
2022-08-05T14:34:54.741Z,34.62
2022-08-05T14:38:01.187Z,34.05
2022-08-05T14:41:07.651Z,33.78
2022-08-05T14:44:20.680Z,33.55
2022-08-05T14:48:02.633Z,33.60
2022-08-05T14:50:48.754Z,33.39
2022-08-05T14:54:06.619Z,32.94
2022-08-05T14:57:15.328Z,32.41
2022-08-05T15:00:21.680Z,32.60
2022-08-05T15:03:39.319Z,32.47
2022-08-05T15:06:41.990Z,32.25
2022-08-05T15:09:54.369Z,32.18
2022-08-05T15:13:03.683Z,32.37
2022-08-05T15:16:07.423Z,32.24
2022-08-05T15:19:23.540Z,30.33
2022-08-05T15:22:27.971Z,26.96
2022-08-05T15:25:51.316Z,26.63
2022-08-05T15:28:53.897Z,32.61
2022-08-05T15:31:56.634Z,35.05
2022-08-05T15:35:09.827Z,38.17
2022-08-05T15:38:35.543Z,41.43
2022-08-05T15:41:55.465Z,44.67
2022-08-05T15:45:00.105Z,46.00
2022-08-05T15:48:04.142Z,47.15
2022-08-05T15:51:09.601Z,45.04
2022-08-05T15:54:15.167Z,44.71
2022-08-05T15:57:18.548Z,41.74
2022-08-05T16:00:26.352Z,43.63
2022-08-05T16:03:44.886Z,41.54
2022-08-05T16:06:53.097Z,42.94
2022-08-05T16:09:55.867Z,44.01
2022-08-05T16:12:58.711Z,42.55
2022-08-05T16:16:01.960Z,42.95
2022-08-05T16:19:06.521Z,42.47
2022-08-05T16:22:15.347Z,42.11
2022-08-05T16:25:18.289Z,42.29
2022-08-05T16:28:21.112Z,43.77
2022-08-05T16:31:27.057Z,40.58
2022-08-05T16:34:50.871Z,39.34
2022-08-05T16:38:16.767Z,37.76
2022-08-05T16:42:12.822Z,35.71
2022-08-05T16:44:40.389Z,34.78
2022-08-05T16:47:54.146Z,38.19
2022-08-05T16:50:59.235Z,39.18
2022-08-05T16:54:16.025Z,35.67
2022-08-05T16:57:39.965Z,34.30
2022-08-05T17:00:46.979Z,32.94
2022-08-05T17:03:52.843Z,31.06
2022-08-05T17:06:57.013Z,31.48
2022-08-05T17:10:05.534Z,32.83
2022-08-05T17:13:16.939Z,32.53
2022-08-05T17:16:33.267Z,30.74
2022-08-05T17:19:36.606Z,29.99
2022-08-05T17:22:39.321Z,29.20
2022-08-05T17:25:43.548Z,28.97
2022-08-05T17:28:47.292Z,28.98
2022-08-05T17:31:59.084Z,28.58
2022-08-05T17:35:02.177Z,28.17
2022-08-05T17:38:07.635Z,28.01
2022-08-05T17:42:16.518Z,27.87
2022-08-05T17:44:35.832Z,27.81
2022-08-05T17:47:38.981Z,27.72
2022-08-05T17:50:41.858Z,27.69
2022-08-05T17:53:44.301Z,27.42
2022-08-05T17:56:55.014Z,27.40
2022-08-05T18:00:05.496Z,27.45
2022-08-05T18:03:08.749Z,27.34
2022-08-05T18:06:14.994Z,27.22
2022-08-05T18:09:18.391Z,26.89
2022-08-05T18:12:24.274Z,26.63
2022-08-05T18:15:27.624Z,26.61
2022-08-05T18:18:39.644Z,26.52
2022-08-05T18:22:09.616Z,26.49
2022-08-05T18:25:06.227Z,26.38
2022-08-05T18:28:11.132Z,26.12
2022-08-05T18:31:15.680Z,26.02
2022-08-05T18:34:21.746Z,26.02
2022-08-05T18:37:33.431Z,25.94
2022-08-05T18:41:53.757Z,25.71
2022-08-05T18:44:05.788Z,25.56
2022-08-05T18:47:12.193Z,25.59
2022-08-05T18:50:45.008Z,25.62
2022-08-05T18:53:50.395Z,25.42
2022-08-05T18:56:53.613Z,25.31
2022-08-05T19:00:02.329Z,25.34
2022-08-05T19:03:07.007Z,25.44
2022-08-05T19:06:18.572Z,25.40
2022-08-05T19:09:25.110Z,25.41
2022-08-05T19:12:28.025Z,25.13
2022-08-05T19:15:57.273Z,25.06
2022-08-05T19:18:56.467Z,24.91
2022-08-05T19:21:59.597Z,24.90
2022-08-05T19:25:03.721Z,24.76
2022-08-05T19:28:06.262Z,24.58
2022-08-05T19:31:13.217Z,24.47
2022-08-05T19:34:18.816Z,24.53
2022-08-05T19:37:21.687Z,24.51
2022-08-05T19:40:25.300Z,24.41
2022-08-05T19:44:05.675Z,24.15
2022-08-05T19:46:52.273Z,24.28
2022-08-05T19:49:57.404Z,24.26
2022-08-05T19:53:10.526Z,24.08
2022-08-05T19:56:29.588Z,24.10
2022-08-05T19:59:55.225Z,24.13
2022-08-05T20:02:59.768Z,23.91
2022-08-05T20:06:15.500Z,24.00
2022-08-05T20:09:19.013Z,23.99
2022-08-05T20:12:21.932Z,23.60
2022-08-05T20:15:52.304Z,22.73
2022-08-05T20:18:55.342Z,21.93
2022-08-05T20:21:58.405Z,21.06
2022-08-05T20:25:01.120Z,20.67
2022-08-05T20:28:05.502Z,20.49
2022-08-05T20:31:08.322Z,20.50
2022-08-05T20:34:12.710Z,20.45
2022-08-05T20:37:17.890Z,20.75
2022-08-05T20:40:38.694Z,20.99
2022-08-05T20:43:59.079Z,21.22
2022-08-05T20:47:06.701Z,21.36
2022-08-05T20:50:12.314Z,21.48
2022-08-05T20:53:16.165Z,21.60
2022-08-05T20:56:41.907Z,21.55
2022-08-05T21:00:10.531Z,21.34
2022-08-05T21:03:08.321Z,21.38
2022-08-05T21:06:27.736Z,21.42
2022-08-05T21:09:31.289Z,21.39
2022-08-05T21:12:37.128Z,21.42
2022-08-05T21:15:41.975Z,21.44
2022-08-05T21:18:53.573Z,21.59
2022-08-05T21:21:59.467Z,21.67
2022-08-05T21:25:02.171Z,21.69
2022-08-05T21:28:05.319Z,21.66
2022-08-05T21:31:08.625Z,21.83
2022-08-05T21:34:12.366Z,21.89
2022-08-05T21:37:16.701Z,21.85
2022-08-05T21:40:19.431Z,21.78
2022-08-05T21:43:23.970Z,21.80
2022-08-05T21:46:27.174Z,21.87
2022-08-05T21:49:48.461Z,21.84
2022-08-05T21:52:58.739Z,21.91
2022-08-05T21:56:16.366Z,21.92
2022-08-05T21:59:24.039Z,22.02
2022-08-05T22:02:27.931Z,21.95
2022-08-05T22:05:36.284Z,21.99
2022-08-05T22:08:53.327Z,22.12
2022-08-05T22:11:58.053Z,22.15
2022-08-05T22:15:03.729Z,22.14
2022-08-05T22:18:07.024Z,22.19
2022-08-05T22:21:19.215Z,22.13
2022-08-05T22:24:52.146Z,22.19
2022-08-05T22:28:09.869Z,22.22
2022-08-05T22:31:15.282Z,22.20
2022-08-05T22:34:25.684Z,22.15
2022-08-05T22:37:58.272Z,22.12
2022-08-05T22:40:56.201Z,22.18
2022-08-05T22:43:59.472Z,22.18
2022-08-05T22:47:05.092Z,22.19
2022-08-05T22:50:19.630Z,22.19
2022-08-05T22:53:24.659Z,22.15
2022-08-05T22:56:40.635Z,22.02
2022-08-05T22:59:51.942Z,22.00
2022-08-05T23:02:56.621Z,22.04
2022-08-05T23:06:00.935Z,21.95
2022-08-05T23:09:27.232Z,21.91
2022-08-05T23:12:32.951Z,21.79
2022-08-05T23:15:36.277Z,21.78
2022-08-05T23:18:38.926Z,21.84
2022-08-05T23:21:48.100Z,21.82
2022-08-05T23:24:51.379Z,21.84
2022-08-05T23:28:00.183Z,21.87
2022-08-05T23:31:17.344Z,21.83
2022-08-05T23:34:24.871Z,21.75
2022-08-05T23:37:34.220Z,21.73
2022-08-05T23:40:39.693Z,21.71
2022-08-05T23:44:06.062Z,21.73
2022-08-05T23:47:15.257Z,21.72
2022-08-05T23:50:20.201Z,21.72
2022-08-05T23:53:23.349Z,21.59
2022-08-05T23:56:31.355Z,21.63
